createdAt,value
2023-03-20T00:03:42.803Z,25.95
2023-03-20T00:08:48.253Z,18.33
2023-03-20T00:13:51.182Z,16.83
2023-03-20T00:18:56.654Z,19.90
2023-03-20T00:24:00.698Z,20.20
2023-03-20T00:29:05.073Z,17.83
2023-03-20T00:34:14.121Z,15.38
2023-03-20T00:39:18.069Z,15.57
2023-03-20T00:44:23.955Z,15.13
2023-03-20T00:49:29.171Z,15.60
2023-03-20T00:54:33.303Z,15.63
2023-03-20T00:59:39.139Z,16.55
2023-03-20T01:04:43.173Z,15.85
2023-03-20T01:09:47.226Z,16.33
2023-03-20T01:14:53.979Z,17.58
2023-03-20T01:19:56.672Z,15.77
2023-03-20T01:25:00.952Z,17.00
2023-03-20T01:30:04.129Z,15.02
2023-03-20T01:35:07.470Z,13.15
2023-03-20T01:40:20.813Z,12.82
2023-03-20T01:45:27.509Z,13.23
2023-03-20T01:50:33.170Z,11.77
2023-03-20T01:55:39.581Z,11.45
2023-03-20T02:00:42.238Z,10.93
2023-03-20T02:05:45.738Z,10.17
2023-03-20T02:16:14.667Z,10.20
2023-03-20T02:21:55.455Z,10.27
2023-03-20T02:27:08.994Z,11.07
2023-03-20T02:33:00.297Z,11.75
2023-03-20T02:38:23.874Z,10.82
2023-03-20T02:43:36.362Z,10.40
2023-03-20T02:48:47.412Z,10.30
2023-03-20T02:53:56.535Z,12.27
2023-03-20T02:59:06.229Z,11.30
2023-03-20T03:04:12.720Z,11.48
2023-03-20T03:09:22.433Z,12.85
2023-03-20T03:14:33.777Z,13.65
2023-03-20T03:19:38.922Z,14.23
2023-03-20T03:24:45.988Z,14.93
2023-03-20T03:29:53.877Z,15.02
2023-03-20T03:34:57.129Z,15.40
2023-03-20T03:40:11.804Z,14.70
2023-03-20T03:45:18.322Z,13.38
2023-03-20T03:50:26.812Z,12.68
2023-03-20T03:55:35.256Z,13.43
2023-03-20T04:00:42.105Z,14.70
2023-03-20T04:05:47.132Z,12.52
2023-03-20T04:10:51.321Z,12.35
2023-03-20T04:15:54.040Z,10.77
2023-03-20T04:20:56.809Z,9.67
2023-03-20T04:26:01.728Z,8.20
2023-03-20T04:31:04.448Z,10.02
2023-03-20T04:36:08.400Z,8.60
2023-03-20T04:41:12.362Z,7.50
2023-03-20T04:46:15.024Z,7.22
2023-03-20T04:51:17.671Z,7.07
2023-03-20T04:56:21.579Z,6.83
2023-03-20T05:01:24.840Z,6.63
2023-03-20T05:06:27.542Z,5.78
2023-03-20T05:11:31.947Z,4.83
2023-03-20T05:16:34.560Z,4.65
2023-03-20T05:21:37.184Z,4.83
2023-03-20T05:26:41.172Z,5.13
2023-03-20T05:31:43.830Z,5.45
2023-03-20T05:36:46.515Z,6.30
2023-03-20T05:41:50.564Z,5.87
2023-03-20T05:46:53.164Z,5.90
2023-03-20T05:51:55.715Z,6.37
2023-03-20T05:56:59.668Z,7.18
2023-03-20T06:02:02.265Z,7.25
2023-03-20T06:07:06.225Z,7.77
2023-03-20T06:12:10.592Z,9.27
2023-03-20T06:17:13.256Z,10.93
2023-03-20T06:22:16.086Z,10.67
2023-03-20T06:27:20.551Z,11.23
2023-03-20T06:32:23.239Z,10.77
2023-03-20T06:37:26.259Z,11.87
2023-03-20T06:42:30.900Z,11.95
2023-03-20T06:47:33.473Z,12.52
2023-03-20T06:52:36.636Z,11.67
2023-03-20T06:57:41.372Z,11.45
2023-03-20T07:02:44.594Z,11.88
2023-03-20T07:07:47.237Z,11.25
2023-03-20T07:12:51.946Z,10.10
2023-03-20T07:17:54.903Z,9.30
2023-03-20T07:22:57.493Z,10.32
2023-03-20T07:28:01.366Z,8.87
2023-03-20T07:33:04.502Z,8.35
2023-03-20T07:38:07.476Z,7.60
2023-03-20T07:43:11.417Z,8.32
2023-03-20T07:48:14.028Z,9.38
2023-03-20T07:53:16.751Z,8.77
2023-03-20T07:58:20.939Z,8.97
2023-03-20T08:03:23.687Z,7.70
2023-03-20T08:08:26.560Z,8.43
2023-03-20T08:13:30.714Z,9.10
2023-03-20T08:18:34.276Z,8.40
2023-03-20T08:23:36.923Z,9.15
2023-03-20T08:28:47.555Z,8.40
2023-03-20T08:33:50.837Z,9.20
2023-03-20T08:38:53.622Z,8.40
2023-03-20T08:43:57.517Z,7.68
2023-03-20T08:49:00.748Z,8.35
2023-03-20T08:54:03.291Z,6.95
2023-03-20T08:59:07.248Z,6.63
2023-03-20T09:04:10.570Z,7.90
2023-03-20T09:09:15.824Z,7.43
2023-03-20T09:14:19.901Z,6.65
2023-03-20T09:19:22.504Z,6.07
2023-03-20T09:24:25.144Z,6.10
2023-03-20T09:29:29.330Z,6.17
2023-03-20T09:34:31.949Z,6.80
2023-03-20T09:39:35.226Z,6.60
2023-03-20T09:44:49.107Z,7.25
2023-03-20T09:50:07.128Z,6.50
2023-03-20T09:55:15.401Z,6.40
2023-03-20T10:00:24.666Z,5.65
2023-03-20T10:05:29.946Z,5.35
2023-03-20T10:10:42.381Z,5.28
2023-03-20T10:15:52.797Z,5.10
2023-03-20T10:20:58.937Z,5.45
2023-03-20T10:26:06.188Z,5.70
2023-03-20T10:31:22.926Z,5.32
2023-03-20T10:36:42.663Z,6.07
2023-03-20T10:41:52.682Z,5.45
2023-03-20T10:46:58.740Z,4.60
2023-03-20T10:52:04.637Z,5.47
2023-03-20T10:57:15.360Z,4.03
2023-03-20T11:02:21.839Z,4.72
2023-03-20T11:07:28.298Z,4.03
2023-03-20T11:12:34.230Z,3.85
2023-03-20T11:17:38.135Z,4.28
2023-03-20T11:22:41.740Z,2.78
2023-03-20T11:27:44.405Z,3.97
2023-03-20T11:32:50.711Z,3.40
2023-03-20T11:37:55.813Z,4.00
2023-03-20T11:43:04.496Z,3.70
2023-03-20T11:48:17.683Z,3.50
2023-03-20T11:53:25.902Z,3.97
2023-03-20T11:58:29.897Z,3.90
2023-03-20T12:03:42.849Z,3.83
2023-03-20T12:08:51.339Z,3.77
2023-03-20T12:13:57.011Z,4.03
2023-03-20T12:19:06.501Z,3.30
2023-03-20T12:24:17.624Z,3.70
2023-03-20T12:29:26.997Z,3.20
2023-03-20T12:34:38.182Z,3.67
2023-03-20T12:39:48.513Z,3.00
2023-03-20T12:44:57.246Z,3.40
2023-03-20T12:50:11.848Z,3.80
2023-03-20T12:55:26.864Z,3.00
2023-03-20T13:00:35.356Z,5.05
2023-03-20T13:05:46.023Z,4.32
2023-03-20T13:10:58.192Z,3.90
2023-03-20T13:16:12.089Z,3.35
2023-03-20T13:26:32.616Z,3.92
2023-03-20T13:31:45.406Z,4.15
2023-03-20T13:37:16.048Z,5.60
2023-03-20T13:42:30.667Z,5.65
2023-03-20T13:47:37.200Z,5.35
2023-03-20T13:52:48.008Z,5.22
2023-03-20T13:58:06.524Z,5.53
2023-03-20T14:03:28.626Z,5.05
2023-03-20T14:08:37.636Z,5.85
2023-03-20T14:13:41.220Z,6.13
2023-03-20T14:18:45.660Z,7.03
2023-03-20T14:23:52.451Z,7.43
2023-03-20T14:28:59.889Z,7.75
2023-03-20T14:34:16.232Z,7.20
2023-03-20T14:39:41.333Z,7.78
2023-03-20T14:45:04.943Z,7.05
2023-03-20T14:50:15.555Z,7.90
2023-03-20T14:55:34.509Z,7.63
2023-03-20T15:00:46.566Z,7.95
2023-03-20T15:05:58.309Z,7.55
2023-03-20T15:11:08.842Z,8.00
2023-03-20T15:16:13.549Z,7.70
2023-03-20T15:21:19.178Z,8.43
2023-03-20T15:26:25.266Z,8.98
2023-03-20T15:31:30.825Z,9.75
2023-03-20T15:36:36.894Z,9.93
2023-03-20T15:41:40.877Z,10.65
2023-03-20T15:46:52.093Z,11.00
2023-03-20T15:51:58.704Z,12.57
2023-03-20T15:57:03.558Z,12.70
2023-03-20T16:02:12.881Z,12.95
2023-03-20T16:07:22.696Z,12.38
2023-03-20T16:12:27.691Z,13.25
2023-03-20T16:17:30.636Z,13.68
2023-03-20T16:22:34.622Z,15.00
2023-03-20T16:27:43.623Z,14.05
2023-03-20T16:32:51.284Z,14.10
2023-03-20T16:37:56.269Z,13.35
2023-03-20T16:43:06.588Z,14.55
2023-03-20T16:48:33.636Z,14.07
2023-03-20T16:53:42.269Z,14.02
2023-03-20T16:58:47.043Z,15.63
2023-03-20T17:03:53.645Z,14.15
2023-03-20T17:09:00.661Z,13.63
2023-03-20T17:14:05.211Z,13.60
2023-03-20T17:19:11.677Z,14.85
2023-03-20T17:24:16.034Z,15.38
2023-03-20T17:29:20.096Z,15.23
2023-03-20T17:34:22.729Z,19.60
2023-03-20T17:39:25.308Z,19.47
2023-03-20T17:44:29.293Z,18.30
2023-03-20T17:49:33.225Z,20.77
2023-03-20T17:54:35.910Z,19.00
2023-03-20T17:59:39.850Z,20.90
2023-03-20T18:04:42.561Z,18.92
2023-03-20T18:09:46.058Z,19.77
2023-03-20T18:14:50.054Z,19.52
2023-03-20T18:19:52.647Z,20.30
2023-03-20T18:24:55.298Z,19.87
2023-03-20T18:29:59.742Z,17.10
2023-03-20T18:35:02.297Z,17.80
2023-03-20T18:40:07.712Z,18.17
2023-03-20T18:45:12.870Z,16.52
2023-03-20T18:50:24.711Z,17.08
2023-03-20T18:55:29.243Z,16.10
2023-03-20T19:00:38.177Z,15.52
2023-03-20T19:05:41.156Z,14.32
2023-03-20T19:10:45.216Z,13.87
2023-03-20T19:15:49.278Z,13.77
2023-03-20T19:20:53.074Z,13.70
2023-03-20T19:25:56.309Z,14.15
2023-03-20T19:31:00.900Z,14.40
2023-03-20T19:36:04.533Z,13.60
2023-03-20T19:41:08.857Z,17.23
2023-03-20T19:46:28.485Z,14.98
2023-03-20T19:51:38.713Z,15.00
2023-03-20T19:56:41.934Z,13.97
2023-03-20T20:01:46.907Z,15.27
2023-03-20T20:06:49.671Z,15.15
2023-03-20T20:11:52.340Z,13.87
2023-03-20T20:16:56.323Z,13.60
2023-03-20T20:22:24.775Z,13.27
2023-03-20T20:27:21.519Z,12.70
2023-03-20T20:32:27.412Z,13.43
2023-03-20T20:38:25.075Z,13.90
2023-03-20T20:42:56.148Z,11.25
2023-03-20T20:48:02.418Z,11.55
2023-03-20T20:53:05.274Z,12.98
2023-03-20T20:58:07.898Z,12.68
2023-03-20T21:03:12.236Z,12.53
2023-03-20T21:08:16.450Z,12.30
2023-03-20T21:13:19.320Z,13.23
2023-03-20T21:18:23.232Z,12.97
2023-03-20T21:23:26.157Z,14.18
2023-03-20T21:28:29.155Z,14.90
2023-03-20T21:33:34.634Z,17.65
2023-03-20T21:39:05.865Z,17.63
2023-03-20T21:44:01.440Z,17.00
2023-03-20T21:49:58.489Z,17.35
2023-03-20T21:55:06.068Z,18.88
2023-03-20T22:22:02.218Z,22.55
2023-03-20T22:27:43.574Z,23.60
2023-03-20T22:38:23.873Z,24.92
2023-03-20T22:44:01.205Z,25.10
2023-03-20T22:48:23.988Z,25.35
2023-03-20T22:53:29.072Z,27.90
2023-03-20T22:58:31.674Z,26.55
2023-03-20T23:03:41.428Z,27.57
2023-03-20T23:08:52.389Z,30.52
2023-03-20T23:13:58.031Z,29.23
2023-03-20T23:19:00.644Z,30.40
2023-03-20T23:24:06.311Z,30.63
2023-03-20T23:29:09.538Z,30.45
2023-03-20T23:34:12.146Z,29.80
2023-03-20T23:39:16.266Z,28.90
2023-03-20T23:44:18.855Z,30.40
2023-03-20T23:49:21.458Z,29.23
2023-03-20T23:54:25.386Z,28.27
2023-03-20T23:59:27.939Z,28.40
